sensor_id;sensor_type;location;lat;lon;timestamp;temperature;humidity
16823;DHT22;8528;49.976;11.858;2023-06-22T00:00:12;16.00;99.90
16823;DHT22;8528;49.976;11.858;2023-06-22T00:02:39;16.00;99.90
16823;DHT22;8528;49.976;11.858;2023-06-22T00:05:06;15.90;99.90
16823;DHT22;8528;49.976;11.858;2023-06-22T00:07:33;15.80;99.90
16823;DHT22;8528;49.976;11.858;2023-06-22T00:10:00;15.80;99.90
16823;DHT22;8528;49.976;11.858;2023-06-22T00:12:27;15.80;99.90
16823;DHT22;8528;49.976;11.858;2023-06-22T00:14:54;15.80;99.90
16823;DHT22;8528;49.976;11.858;2023-06-22T00:17:21;15.70;99.90
16823;DHT22;8528;49.976;11.858;2023-06-22T00:19:47;15.70;99.90
16823;DHT22;8528;49.976;11.858;2023-06-22T00:22:20;15.60;99.90
16823;DHT22;8528;49.976;11.858;2023-06-22T00:24:56;15.60;99.90
16823;DHT22;8528;49.976;11.858;2023-06-22T00:27:23;15.60;99.90
16823;DHT22;8528;49.976;11.858;2023-06-22T00:29:50;15.60;99.90
16823;DHT22;8528;49.976;11.858;2023-06-22T00:32:17;15.50;99.90
16823;DHT22;8528;49.976;11.858;2023-06-22T00:34:45;15.50;99.90
16823;DHT22;8528;49.976;11.858;2023-06-22T00:37:12;15.50;99.90
16823;DHT22;8528;49.976;11.858;2023-06-22T00:39:39;15.50;99.90
16823;DHT22;8528;49.976;11.858;2023-06-22T00:42:06;15.50;99.90
16823;DHT22;8528;49.976;11.858;2023-06-22T00:44:33;15.50;99.90
16823;DHT22;8528;49.976;11.858;2023-06-22T00:46:59;15.40;99.90
16823;DHT22;8528;49.976;11.858;2023-06-22T00:49:27;15.40;99.90
16823;DHT22;8528;49.976;11.858;2023-06-22T00:51:55;15.40;99.90
16823;DHT22;8528;49.976;11.858;2023-06-22T00:54:22;15.40;99.90
16823;DHT22;8528;49.976;11.858;2023-06-22T00:56:53;15.30;99.90
16823;DHT22;8528;49.976;11.858;2023-06-22T00:59:22;15.30;99.90
16823;DHT22;8528;49.976;11.858;2023-06-22T01:01:50;15.40;99.90
16823;DHT22;8528;49.976;11.858;2023-06-22T01:04:17;15.30;99.90
16823;DHT22;8528;49.976;11.858;2023-06-22T01:07:17;15.30;99.90
16823;DHT22;8528;49.976;11.858;2023-06-22T01:09:52;15.30;99.90
16823;DHT22;8528;49.976;11.858;2023-06-22T01:12:21;15.30;99.90
16823;DHT22;8528;49.976;11.858;2023-06-22T01:15:08;15.30;99.90
16823;DHT22;8528;49.976;11.858;2023-06-22T01:17:40;15.30;99.90
16823;DHT22;8528;49.976;11.858;2023-06-22T01:20:09;15.30;99.90
16823;DHT22;8528;49.976;11.858;2023-06-22T01:26:13;15.30;99.90
16823;DHT22;8528;49.976;11.858;2023-06-22T01:28:54;15.20;99.90
16823;DHT22;8528;49.976;11.858;2023-06-22T01:31:25;15.10;99.90
16823;DHT22;8528;49.976;11.858;2023-06-22T01:33:58;15.10;99.90
16823;DHT22;8528;49.976;11.858;2023-06-22T01:36:26;15.00;99.90
16823;DHT22;8528;49.976;11.858;2023-06-22T01:38:54;15.00;99.90
16823;DHT22;8528;49.976;11.858;2023-06-22T01:41:24;15.00;99.90
16823;DHT22;8528;49.976;11.858;2023-06-22T01:43:52;15.00;99.90
16823;DHT22;8528;49.976;11.858;2023-06-22T01:46:21;15.00;99.90
16823;DHT22;8528;49.976;11.858;2023-06-22T01:48:49;15.00;99.90
16823;DHT22;8528;49.976;11.858;2023-06-22T01:51:17;15.00;99.90
16823;DHT22;8528;49.976;11.858;2023-06-22T01:53:44;14.90;99.90
16823;DHT22;8528;49.976;11.858;2023-06-22T01:56:11;14.90;99.90
16823;DHT22;8528;49.976;11.858;2023-06-22T01:59:34;14.90;99.90
16823;DHT22;8528;49.976;11.858;2023-06-22T02:01:47;15.00;99.90
16823;DHT22;8528;49.976;11.858;2023-06-22T02:04:24;14.90;99.90
16823;DHT22;8528;49.976;11.858;2023-06-22T02:06:58;14.90;99.90
16823;DHT22;8528;49.976;11.858;2023-06-22T02:09:29;14.90;99.90
16823;DHT22;8528;49.976;11.858;2023-06-22T02:11:57;14.90;99.90
16823;DHT22;8528;49.976;11.858;2023-06-22T02:14:25;14.90;99.90
16823;DHT22;8528;49.976;11.858;2023-06-22T02:16:52;14.90;99.90
16823;DHT22;8528;49.976;11.858;2023-06-22T02:19:23;14.90;99.90
16823;DHT22;8528;49.976;11.858;2023-06-22T02:21:50;14.90;99.90
16823;DHT22;8528;49.976;11.858;2023-06-22T02:24:18;14.90;99.90
16823;DHT22;8528;49.976;11.858;2023-06-22T02:26:45;15.00;99.90
16823;DHT22;8528;49.976;11.858;2023-06-22T02:29:12;15.00;99.90
16823;DHT22;8528;49.976;11.858;2023-06-22T02:31:39;15.10;99.90
16823;DHT22;8528;49.976;11.858;2023-06-22T02:34:06;15.10;99.90
16823;DHT22;8528;49.976;11.858;2023-06-22T02:36:33;15.20;99.90
16823;DHT22;8528;49.976;11.858;2023-06-22T02:39:01;15.20;99.90
16823;DHT22;8528;49.976;11.858;2023-06-22T02:41:28;15.30;99.90
16823;DHT22;8528;49.976;11.858;2023-06-22T02:43:55;15.30;99.90
16823;DHT22;8528;49.976;11.858;2023-06-22T02:46:22;15.40;99.90
16823;DHT22;8528;49.976;11.858;2023-06-22T02:48:48;15.50;99.90
16823;DHT22;8528;49.976;11.858;2023-06-22T02:51:15;15.50;99.90
16823;DHT22;8528;49.976;11.858;2023-06-22T02:53:42;15.50;99.90
16823;DHT22;8528;49.976;11.858;2023-06-22T02:56:12;15.50;99.90
16823;DHT22;8528;49.976;11.858;2023-06-22T02:58:39;15.50;99.90
16823;DHT22;8528;49.976;11.858;2023-06-22T03:01:06;15.50;99.90
16823;DHT22;8528;49.976;11.858;2023-06-22T03:03:33;15.50;99.90
16823;DHT22;8528;49.976;11.858;2023-06-22T03:06:00;15.50;99.90
16823;DHT22;8528;49.976;11.858;2023-06-22T03:08:28;15.50;99.90
16823;DHT22;8528;49.976;11.858;2023-06-22T03:10:56;15.50;99.90
16823;DHT22;8528;49.976;11.858;2023-06-22T03:13:23;15.50;99.90
16823;DHT22;8528;49.976;11.858;2023-06-22T03:15:50;15.50;99.90
16823;DHT22;8528;49.976;11.858;2023-06-22T03:18:16;15.50;99.90
16823;DHT22;8528;49.976;11.858;2023-06-22T03:20:43;15.50;99.90
16823;DHT22;8528;49.976;11.858;2023-06-22T03:23:10;15.40;99.90
16823;DHT22;8528;49.976;11.858;2023-06-22T03:25:37;15.40;99.90
16823;DHT22;8528;49.976;11.858;2023-06-22T03:28:04;15.40;99.90
16823;DHT22;8528;49.976;11.858;2023-06-22T03:30:31;15.40;99.90
16823;DHT22;8528;49.976;11.858;2023-06-22T03:32:58;15.50;99.90
16823;DHT22;8528;49.976;11.858;2023-06-22T03:35:25;15.70;99.90
16823;DHT22;8528;49.976;11.858;2023-06-22T03:37:52;15.90;99.90
16823;DHT22;8528;49.976;11.858;2023-06-22T03:40:19;16.10;99.90
16823;DHT22;8528;49.976;11.858;2023-06-22T03:42:46;16.20;99.90
16823;DHT22;8528;49.976;11.858;2023-06-22T03:45:13;16.40;99.90
16823;DHT22;8528;49.976;11.858;2023-06-22T03:47:41;16.50;99.90
16823;DHT22;8528;49.976;11.858;2023-06-22T03:50:08;16.70;99.90
16823;DHT22;8528;49.976;11.858;2023-06-22T03:52:35;16.70;99.90
16823;DHT22;8528;49.976;11.858;2023-06-22T03:55:02;16.70;99.90
16823;DHT22;8528;49.976;11.858;2023-06-22T03:57:29;16.80;99.90
16823;DHT22;8528;49.976;11.858;2023-06-22T03:59:57;16.80;99.90
16823;DHT22;8528;49.976;11.858;2023-06-22T04:02:25;16.80;99.90
16823;DHT22;8528;49.976;11.858;2023-06-22T04:04:52;16.90;99.90
16823;DHT22;8528;49.976;11.858;2023-06-22T04:07:19;16.90;99.90
16823;DHT22;8528;49.976;11.858;2023-06-22T04:09:46;16.90;99.90
16823;DHT22;8528;49.976;11.858;2023-06-22T04:12:13;16.90;99.90
16823;DHT22;8528;49.976;11.858;2023-06-22T04:14:40;17.00;99.90
16823;DHT22;8528;49.976;11.858;2023-06-22T04:17:06;17.00;99.90
16823;DHT22;8528;49.976;11.858;2023-06-22T04:19:34;17.10;99.90
16823;DHT22;8528;49.976;11.858;2023-06-22T04:22:00;17.20;99.90
16823;DHT22;8528;49.976;11.858;2023-06-22T04:24:27;17.30;99.90
16823;DHT22;8528;49.976;11.858;2023-06-22T04:26:54;17.30;99.90
16823;DHT22;8528;49.976;11.858;2023-06-22T04:29:21;17.40;99.90
16823;DHT22;8528;49.976;11.858;2023-06-22T04:31:58;17.40;99.90
16823;DHT22;8528;49.976;11.858;2023-06-22T04:34:29;17.60;99.90
16823;DHT22;8528;49.976;11.858;2023-06-22T04:36:56;18.00;99.90
16823;DHT22;8528;49.976;11.858;2023-06-22T04:39:24;18.40;99.90
16823;DHT22;8528;49.976;11.858;2023-06-22T04:41:51;18.80;99.90
16823;DHT22;8528;49.976;11.858;2023-06-22T04:44:18;19.20;99.90
16823;DHT22;8528;49.976;11.858;2023-06-22T04:46:53;19.50;99.90
16823;DHT22;8528;49.976;11.858;2023-06-22T04:49:35;19.80;99.90
16823;DHT22;8528;49.976;11.858;2023-06-22T04:52:08;20.20;99.90
16823;DHT22;8528;49.976;11.858;2023-06-22T04:54:36;20.70;99.90
16823;DHT22;8528;49.976;11.858;2023-06-22T04:57:05;21.10;99.90
16823;DHT22;8528;49.976;11.858;2023-06-22T04:59:56;21.10;99.90
16823;DHT22;8528;49.976;11.858;2023-06-22T05:02:22;21.20;99.90
16823;DHT22;8528;49.976;11.858;2023-06-22T05:04:54;21.70;99.90
16823;DHT22;8528;49.976;11.858;2023-06-22T05:07:23;22.20;99.90
16823;DHT22;8528;49.976;11.858;2023-06-22T05:09:52;22.70;99.90
16823;DHT22;8528;49.976;11.858;2023-06-22T05:12:19;23.10;99.90
16823;DHT22;8528;49.976;11.858;2023-06-22T05:14:45;23.00;99.90
16823;DHT22;8528;49.976;11.858;2023-06-22T05:17:12;23.30;99.90
16823;DHT22;8528;49.976;11.858;2023-06-22T05:19:42;23.80;99.90
16823;DHT22;8528;49.976;11.858;2023-06-22T05:22:11;24.20;99.90
16823;DHT22;8528;49.976;11.858;2023-06-22T05:24:39;23.60;99.90
16823;DHT22;8528;49.976;11.858;2023-06-22T05:27:06;23.20;99.90
16823;DHT22;8528;49.976;11.858;2023-06-22T05:29:33;23.60;99.90
16823;DHT22;8528;49.976;11.858;2023-06-22T05:32:00;24.20;99.90
16823;DHT22;8528;49.976;11.858;2023-06-22T05:34:26;24.80;99.90
16823;DHT22;8528;49.976;11.858;2023-06-22T05:36:53;25.50;99.90
16823;DHT22;8528;49.976;11.858;2023-06-22T05:39:20;26.10;99.90
16823;DHT22;8528;49.976;11.858;2023-06-22T05:41:47;26.60;99.90
16823;DHT22;8528;49.976;11.858;2023-06-22T05:44:14;26.70;99.90
16823;DHT22;8528;49.976;11.858;2023-06-22T05:46:42;26.50;99.90
16823;DHT22;8528;49.976;11.858;2023-06-22T05:49:16;26.10;99.90
16823;DHT22;8528;49.976;11.858;2023-06-22T05:51:43;25.70;99.90
16823;DHT22;8528;49.976;11.858;2023-06-22T05:54:10;25.60;99.90
16823;DHT22;8528;49.976;11.858;2023-06-22T05:56:40;25.70;99.90
16823;DHT22;8528;49.976;11.858;2023-06-22T05:59:06;25.80;99.90
16823;DHT22;8528;49.976;11.858;2023-06-22T06:01:33;25.70;99.90
16823;DHT22;8528;49.976;11.858;2023-06-22T06:04:03;26.10;99.90
16823;DHT22;8528;49.976;11.858;2023-06-22T06:06:31;26.30;99.90
16823;DHT22;8528;49.976;11.858;2023-06-22T06:08:57;26.50;99.90
16823;DHT22;8528;49.976;11.858;2023-06-22T06:11:26;26.60;99.90
16823;DHT22;8528;49.976;11.858;2023-06-22T06:13:53;27.30;99.90
16823;DHT22;8528;49.976;11.858;2023-06-22T06:16:22;27.30;99.90
16823;DHT22;8528;49.976;11.858;2023-06-22T06:18:49;27.10;99.90
16823;DHT22;8528;49.976;11.858;2023-06-22T06:21:17;26.30;99.90
16823;DHT22;8528;49.976;11.858;2023-06-22T06:23:44;26.10;99.90
16823;DHT22;8528;49.976;11.858;2023-06-22T06:26:10;26.50;99.90
16823;DHT22;8528;49.976;11.858;2023-06-22T06:28:37;27.10;99.90
16823;DHT22;8528;49.976;11.858;2023-06-22T06:31:04;27.80;98.00
16823;DHT22;8528;49.976;11.858;2023-06-22T06:33:34;27.80;97.30
16823;DHT22;8528;49.976;11.858;2023-06-22T06:36:02;27.60;97.00
16823;DHT22;8528;49.976;11.858;2023-06-22T06:38:30;26.90;98.10
16823;DHT22;8528;49.976;11.858;2023-06-22T06:40:58;27.10;97.70
16823;DHT22;8528;49.976;11.858;2023-06-22T06:43:25;27.80;97.00
16823;DHT22;8528;49.976;11.858;2023-06-22T06:45:52;28.70;95.50
16823;DHT22;8528;49.976;11.858;2023-06-22T06:48:19;29.50;93.20
16823;DHT22;8528;49.976;11.858;2023-06-22T06:50:46;29.30;92.90
16823;DHT22;8528;49.976;11.858;2023-06-22T06:53:13;29.30;91.60
16823;DHT22;8528;49.976;11.858;2023-06-22T06:55:39;29.20;91.50
16823;DHT22;8528;49.976;11.858;2023-06-22T06:58:07;29.10;91.80
16823;DHT22;8528;49.976;11.858;2023-06-22T07:00:36;29.50;90.70
16823;DHT22;8528;49.976;11.858;2023-06-22T07:03:03;30.00;90.30
16823;DHT22;8528;49.976;11.858;2023-06-22T07:05:31;29.70;90.00
16823;DHT22;8528;49.976;11.858;2023-06-22T07:07:57;30.00;88.60
16823;DHT22;8528;49.976;11.858;2023-06-22T07:10:24;30.50;86.00
16823;DHT22;8528;49.976;11.858;2023-06-22T07:12:51;30.00;85.30
16823;DHT22;8528;49.976;11.858;2023-06-22T07:15:27;29.50;86.40
16823;DHT22;8528;49.976;11.858;2023-06-22T07:17:53;29.50;86.90
16823;DHT22;8528;49.976;11.858;2023-06-22T07:20:20;30.00;84.90
16823;DHT22;8528;49.976;11.858;2023-06-22T07:22:47;30.70;82.50
16823;DHT22;8528;49.976;11.858;2023-06-22T07:25:14;30.00;83.30
16823;DHT22;8528;49.976;11.858;2023-06-22T07:27:56;30.30;82.60
16823;DHT22;8528;49.976;11.858;2023-06-22T07:30:23;30.70;81.20
16823;DHT22;8528;49.976;11.858;2023-06-22T07:32:50;30.90;81.20
16823;DHT22;8528;49.976;11.858;2023-06-22T07:35:19;31.20;78.40
16823;DHT22;8528;49.976;11.858;2023-06-22T07:37:46;30.60;79.30
16823;DHT22;8528;49.976;11.858;2023-06-22T07:43:54;32.00;74.70
16823;DHT22;8528;49.976;11.858;2023-06-22T07:46:21;32.00;73.00
16823;DHT22;8528;49.976;11.858;2023-06-22T07:48:48;32.20;72.50
16823;DHT22;8528;49.976;11.858;2023-06-22T07:51:15;32.30;71.80
16823;DHT22;8528;49.976;11.858;2023-06-22T07:53:43;32.90;69.50
16823;DHT22;8528;49.976;11.858;2023-06-22T07:56:11;32.20;70.50
16823;DHT22;8528;49.976;11.858;2023-06-22T07:58:38;31.90;71.10
16823;DHT22;8528;49.976;11.858;2023-06-22T08:01:05;32.20;69.90
16823;DHT22;8528;49.976;11.858;2023-06-22T08:03:35;32.40;69.10
16823;DHT22;8528;49.976;11.858;2023-06-22T08:06:03;32.40;68.20
16823;DHT22;8528;49.976;11.858;2023-06-22T08:08:30;32.80;67.50
16823;DHT22;8528;49.976;11.858;2023-06-22T08:10:57;33.00;65.90
16823;DHT22;8528;49.976;11.858;2023-06-22T08:13:24;33.40;64.80
16823;DHT22;8528;49.976;11.858;2023-06-22T08:15:50;33.00;65.70
16823;DHT22;8528;49.976;11.858;2023-06-22T08:18:17;32.70;65.90
16823;DHT22;8528;49.976;11.858;2023-06-22T08:20:44;33.50;65.00
16823;DHT22;8528;49.976;11.858;2023-06-22T08:23:11;33.40;63.50
16823;DHT22;8528;49.976;11.858;2023-06-22T08:25:38;33.50;63.60
16823;DHT22;8528;49.976;11.858;2023-06-22T08:28:05;34.40;61.20
16823;DHT22;8528;49.976;11.858;2023-06-22T08:30:32;33.80;61.10
16823;DHT22;8528;49.976;11.858;2023-06-22T08:32:59;33.50;63.10
16823;DHT22;8528;49.976;11.858;2023-06-22T08:35:26;34.30;60.80
16823;DHT22;8528;49.976;11.858;2023-06-22T08:37:53;34.40;59.90
16823;DHT22;8528;49.976;11.858;2023-06-22T08:40:21;34.80;59.00
16823;DHT22;8528;49.976;11.858;2023-06-22T08:42:48;35.40;56.70
16823;DHT22;8528;49.976;11.858;2023-06-22T08:45:16;35.90;56.40
16823;DHT22;8528;49.976;11.858;2023-06-22T08:47:43;36.40;54.80
16823;DHT22;8528;49.976;11.858;2023-06-22T08:50:10;37.20;52.20
16823;DHT22;8528;49.976;11.858;2023-06-22T08:52:38;37.60;52.00
16823;DHT22;8528;49.976;11.858;2023-06-22T08:55:08;37.60;52.00
16823;DHT22;8528;49.976;11.858;2023-06-22T08:57:35;37.50;50.90
16823;DHT22;8528;49.976;11.858;2023-06-22T09:03:52;37.00;51.00
16823;DHT22;8528;49.976;11.858;2023-06-22T09:06:24;36.60;50.90
16823;DHT22;8528;49.976;11.858;2023-06-22T09:08:51;36.30;51.60
16823;DHT22;8528;49.976;11.858;2023-06-22T09:11:18;36.20;51.30
16823;DHT22;8528;49.976;11.858;2023-06-22T09:13:45;36.50;51.70
16823;DHT22;8528;49.976;11.858;2023-06-22T09:16:12;36.40;51.10
16823;DHT22;8528;49.976;11.858;2023-06-22T09:18:40;36.50;50.10
16823;DHT22;8528;49.976;11.858;2023-06-22T09:21:06;36.40;50.60
16823;DHT22;8528;49.976;11.858;2023-06-22T09:23:33;36.30;50.50
16823;DHT22;8528;49.976;11.858;2023-06-22T09:26:00;37.40;50.00
16823;DHT22;8528;49.976;11.858;2023-06-22T09:28:27;37.40;48.50
16823;DHT22;8528;49.976;11.858;2023-06-22T09:30:54;36.50;49.00
16823;DHT22;8528;49.976;11.858;2023-06-22T09:33:26;36.30;49.30
16823;DHT22;8528;49.976;11.858;2023-06-22T09:35:53;35.90;49.80
16823;DHT22;8528;49.976;11.858;2023-06-22T09:38:19;35.80;49.60
16823;DHT22;8528;49.976;11.858;2023-06-22T09:40:46;35.60;51.20
16823;DHT22;8528;49.976;11.858;2023-06-22T09:43:13;35.90;51.00
16823;DHT22;8528;49.976;11.858;2023-06-22T09:45:40;36.90;49.80
16823;DHT22;8528;49.976;11.858;2023-06-22T09:48:08;36.20;50.70
16823;DHT22;8528;49.976;11.858;2023-06-22T09:50:36;36.20;49.10
16823;DHT22;8528;49.976;11.858;2023-06-22T09:53:03;36.60;49.00
16823;DHT22;8528;49.976;11.858;2023-06-22T09:55:30;37.80;47.40
16823;DHT22;8528;49.976;11.858;2023-06-22T09:57:57;37.00;47.80
16823;DHT22;8528;49.976;11.858;2023-06-22T10:00:24;36.80;48.30
16823;DHT22;8528;49.976;11.858;2023-06-22T10:02:54;36.90;48.50
16823;DHT22;8528;49.976;11.858;2023-06-22T10:05:26;37.40;47.40
16823;DHT22;8528;49.976;11.858;2023-06-22T10:07:54;37.50;47.90
16823;DHT22;8528;49.976;11.858;2023-06-22T10:10:21;38.50;47.00
16823;DHT22;8528;49.976;11.858;2023-06-22T10:12:57;37.80;47.00
16823;DHT22;8528;49.976;11.858;2023-06-22T10:15:29;36.50;48.40
16823;DHT22;8528;49.976;11.858;2023-06-22T10:17:56;35.90;50.00
16823;DHT22;8528;49.976;11.858;2023-06-22T10:20:23;37.80;48.30
16823;DHT22;8528;49.976;11.858;2023-06-22T10:22:52;39.00;44.70
16823;DHT22;8528;49.976;11.858;2023-06-22T10:25:27;39.30;44.60
16823;DHT22;8528;49.976;11.858;2023-06-22T10:27:56;38.80;44.70
16823;DHT22;8528;49.976;11.858;2023-06-22T10:30:23;38.90;45.20
16823;DHT22;8528;49.976;11.858;2023-06-22T10:32:50;39.90;44.30
16823;DHT22;8528;49.976;11.858;2023-06-22T10:35:25;39.20;44.50
16823;DHT22;8528;49.976;11.858;2023-06-22T10:37:53;39.50;43.70
16823;DHT22;8528;49.976;11.858;2023-06-22T10:40:21;39.60;44.20
16823;DHT22;8528;49.976;11.858;2023-06-22T10:42:47;39.90;43.80
16823;DHT22;8528;49.976;11.858;2023-06-22T10:45:14;39.70;43.30
16823;DHT22;8528;49.976;11.858;2023-06-22T10:47:41;39.50;43.60
16823;DHT22;8528;49.976;11.858;2023-06-22T10:50:11;39.00;43.60
16823;DHT22;8528;49.976;11.858;2023-06-22T10:52:39;39.70;43.50
16823;DHT22;8528;49.976;11.858;2023-06-22T10:55:06;40.30;42.40
16823;DHT22;8528;49.976;11.858;2023-06-22T10:57:33;41.00;42.00
16823;DHT22;8528;49.976;11.858;2023-06-22T11:00:00;41.10;41.60
16823;DHT22;8528;49.976;11.858;2023-06-22T11:02:27;40.50;41.80
16823;DHT22;8528;49.976;11.858;2023-06-22T11:04:55;39.40;42.80
16823;DHT22;8528;49.976;11.858;2023-06-22T11:07:22;39.40;42.30
16823;DHT22;8528;49.976;11.858;2023-06-22T11:09:48;38.00;44.20
16823;DHT22;8528;49.976;11.858;2023-06-22T11:12:15;38.10;45.40
16823;DHT22;8528;49.976;11.858;2023-06-22T11:14:42;39.20;43.70
16823;DHT22;8528;49.976;11.858;2023-06-22T11:17:09;39.00;42.70
16823;DHT22;8528;49.976;11.858;2023-06-22T11:19:36;39.00;42.70
16823;DHT22;8528;49.976;11.858;2023-06-22T11:22:03;39.20;42.30
16823;DHT22;8528;49.976;11.858;2023-06-22T11:24:30;40.00;41.70
16823;DHT22;8528;49.976;11.858;2023-06-22T11:26:57;41.00;40.10
16823;DHT22;8528;49.976;11.858;2023-06-22T11:29:25;40.70;40.00
16823;DHT22;8528;49.976;11.858;2023-06-22T11:32:03;39.50;41.00
16823;DHT22;8528;49.976;11.858;2023-06-22T11:34:30;39.70;41.40
16823;DHT22;8528;49.976;11.858;2023-06-22T11:37:04;40.50;39.90
16823;DHT22;8528;49.976;11.858;2023-06-22T11:39:31;41.30;38.70
16823;DHT22;8528;49.976;11.858;2023-06-22T11:42:09;41.10;39.60
16823;DHT22;8528;49.976;11.858;2023-06-22T11:44:36;41.50;38.80
16823;DHT22;8528;49.976;11.858;2023-06-22T11:47:03;42.10;37.70
16823;DHT22;8528;49.976;11.858;2023-06-22T11:49:31;42.70;39.60
16823;DHT22;8528;49.976;11.858;2023-06-22T11:51:58;41.80;38.20
16823;DHT22;8528;49.976;11.858;2023-06-22T11:54:25;41.70;38.70
16823;DHT22;8528;49.976;11.858;2023-06-22T11:56:52;42.30;37.70
16823;DHT22;8528;49.976;11.858;2023-06-22T11:59:19;42.10;38.20
16823;DHT22;8528;49.976;11.858;2023-06-22T12:01:48;41.60;39.00
16823;DHT22;8528;49.976;11.858;2023-06-22T12:04:17;41.40;38.70
16823;DHT22;8528;49.976;11.858;2023-06-22T12:06:44;42.00;38.20
16823;DHT22;8528;49.976;11.858;2023-06-22T12:09:11;43.40;36.80
16823;DHT22;8528;49.976;11.858;2023-06-22T12:11:40;44.20;35.90
16823;DHT22;8528;49.976;11.858;2023-06-22T12:14:07;43.40;36.00
16823;DHT22;8528;49.976;11.858;2023-06-22T12:16:34;42.30;37.20
16823;DHT22;8528;49.976;11.858;2023-06-22T12:19:00;42.50;37.50
16823;DHT22;8528;49.976;11.858;2023-06-22T12:21:27;42.40;37.10
16823;DHT22;8528;49.976;11.858;2023-06-22T12:23:55;43.10;36.60
16823;DHT22;8528;49.976;11.858;2023-06-22T12:26:22;41.80;37.10
16823;DHT22;8528;49.976;11.858;2023-06-22T12:28:49;40.40;39.10
16823;DHT22;8528;49.976;11.858;2023-06-22T12:31:17;39.00;41.10
16823;DHT22;8528;49.976;11.858;2023-06-22T12:33:44;37.10;43.30
16823;DHT22;8528;49.976;11.858;2023-06-22T12:36:11;36.80;44.10
16823;DHT22;8528;49.976;11.858;2023-06-22T12:38:38;37.50;42.50
16823;DHT22;8528;49.976;11.858;2023-06-22T12:41:05;38.10;42.10
16823;DHT22;8528;49.976;11.858;2023-06-22T12:43:31;38.90;41.40
16823;DHT22;8528;49.976;11.858;2023-06-22T12:45:59;39.30;40.20
16823;DHT22;8528;49.976;11.858;2023-06-22T12:48:28;40.70;39.30
16823;DHT22;8528;49.976;11.858;2023-06-22T12:50:55;40.50;38.60
16823;DHT22;8528;49.976;11.858;2023-06-22T12:53:22;40.20;39.90
16823;DHT22;8528;49.976;11.858;2023-06-22T12:55:50;39.30;40.20
16823;DHT22;8528;49.976;11.858;2023-06-22T12:58:30;39.30;40.10
16823;DHT22;8528;49.976;11.858;2023-06-22T13:00:57;39.70;40.00
16823;DHT22;8528;49.976;11.858;2023-06-22T13:03:24;38.90;40.10
16823;DHT22;8528;49.976;11.858;2023-06-22T13:05:53;39.10;40.10
16823;DHT22;8528;49.976;11.858;2023-06-22T13:08:20;38.10;40.50
16823;DHT22;8528;49.976;11.858;2023-06-22T13:10:47;36.80;42.80
16823;DHT22;8528;49.976;11.858;2023-06-22T13:13:14;35.60;44.00
16823;DHT22;8528;49.976;11.858;2023-06-22T13:15:41;35.70;44.30
16823;DHT22;8528;49.976;11.858;2023-06-22T13:18:08;35.80;44.50
16823;DHT22;8528;49.976;11.858;2023-06-22T13:20:35;36.00;44.00
16823;DHT22;8528;49.976;11.858;2023-06-22T13:23:02;35.70;44.00
16823;DHT22;8528;49.976;11.858;2023-06-22T13:25:29;35.50;44.30
16823;DHT22;8528;49.976;11.858;2023-06-22T13:27:57;35.20;44.50
16823;DHT22;8528;49.976;11.858;2023-06-22T13:30:24;34.80;45.30
16823;DHT22;8528;49.976;11.858;2023-06-22T13:32:51;34.60;45.00
16823;DHT22;8528;49.976;11.858;2023-06-22T13:35:18;34.40;46.50
16823;DHT22;8528;49.976;11.858;2023-06-22T13:37:45;34.00;46.70
16823;DHT22;8528;49.976;11.858;2023-06-22T13:40:12;33.60;47.00
16823;DHT22;8528;49.976;11.858;2023-06-22T13:42:39;33.80;46.90
16823;DHT22;8528;49.976;11.858;2023-06-22T13:45:06;33.70;47.10
16823;DHT22;8528;49.976;11.858;2023-06-22T13:47:34;33.80;46.90
16823;DHT22;8528;49.976;11.858;2023-06-22T13:50:01;33.80;47.00
16823;DHT22;8528;49.976;11.858;2023-06-22T13:52:28;33.70;47.70
16823;DHT22;8528;49.976;11.858;2023-06-22T13:54:56;33.70;47.20
16823;DHT22;8528;49.976;11.858;2023-06-22T13:57:23;33.60;47.50
16823;DHT22;8528;49.976;11.858;2023-06-22T13:59:50;33.60;47.20
16823;DHT22;8528;49.976;11.858;2023-06-22T14:02:16;33.50;47.40
16823;DHT22;8528;49.976;11.858;2023-06-22T14:04:43;33.30;47.90
16823;DHT22;8528;49.976;11.858;2023-06-22T14:07:10;32.80;48.60
16823;DHT22;8528;49.976;11.858;2023-06-22T14:09:39;32.60;48.90
16823;DHT22;8528;49.976;11.858;2023-06-22T14:12:07;32.70;48.80
16823;DHT22;8528;49.976;11.858;2023-06-22T14:14:34;32.80;49.30
16823;DHT22;8528;49.976;11.858;2023-06-22T14:17:01;32.80;48.80
16823;DHT22;8528;49.976;11.858;2023-06-22T14:19:28;32.90;49.20
16823;DHT22;8528;49.976;11.858;2023-06-22T14:21:55;33.10;48.60
16823;DHT22;8528;49.976;11.858;2023-06-22T14:24:23;33.30;49.20
16823;DHT22;8528;49.976;11.858;2023-06-22T14:26:54;33.10;48.10
16823;DHT22;8528;49.976;11.858;2023-06-22T14:29:22;33.10;48.20
16823;DHT22;8528;49.976;11.858;2023-06-22T14:31:49;32.90;48.30
16823;DHT22;8528;49.976;11.858;2023-06-22T14:34:16;32.90;48.40
16823;DHT22;8528;49.976;11.858;2023-06-22T14:36:43;33.00;48.40
16823;DHT22;8528;49.976;11.858;2023-06-22T14:39:10;33.00;48.60
16823;DHT22;8528;49.976;11.858;2023-06-22T14:41:37;32.80;48.90
16823;DHT22;8528;49.976;11.858;2023-06-22T14:44:04;32.30;48.80
16823;DHT22;8528;49.976;11.858;2023-06-22T14:46:31;32.10;49.90
16823;DHT22;8528;49.976;11.858;2023-06-22T14:48:57;32.00;50.80
16823;DHT22;8528;49.976;11.858;2023-06-22T14:51:24;32.20;49.40
16823;DHT22;8528;49.976;11.858;2023-06-22T14:53:52;32.20;49.60
16823;DHT22;8528;49.976;11.858;2023-06-22T14:56:19;32.20;50.20
16823;DHT22;8528;49.976;11.858;2023-06-22T14:58:46;32.20;50.60
16823;DHT22;8528;49.976;11.858;2023-06-22T15:01:15;32.20;49.90
16823;DHT22;8528;49.976;11.858;2023-06-22T15:03:43;32.20;50.50
16823;DHT22;8528;49.976;11.858;2023-06-22T15:06:10;32.20;50.70
16823;DHT22;8528;49.976;11.858;2023-06-22T15:08:38;32.20;51.10
16823;DHT22;8528;49.976;11.858;2023-06-22T15:11:06;32.20;50.90
16823;DHT22;8528;49.976;11.858;2023-06-22T15:13:33;32.20;51.30
16823;DHT22;8528;49.976;11.858;2023-06-22T15:16:02;32.20;50.20
16823;DHT22;8528;49.976;11.858;2023-06-22T15:18:30;32.10;50.60
16823;DHT22;8528;49.976;11.858;2023-06-22T15:20:57;32.20;51.40
16823;DHT22;8528;49.976;11.858;2023-06-22T15:23:26;32.20;50.80
16823;DHT22;8528;49.976;11.858;2023-06-22T15:25:52;31.90;51.70
16823;DHT22;8528;49.976;11.858;2023-06-22T15:28:19;31.80;51.80
16823;DHT22;8528;49.976;11.858;2023-06-22T15:30:51;31.60;52.30
16823;DHT22;8528;49.976;11.858;2023-06-22T15:33:19;31.80;52.70
16823;DHT22;8528;49.976;11.858;2023-06-22T15:35:45;31.70;51.50
16823;DHT22;8528;49.976;11.858;2023-06-22T15:38:12;31.50;52.20
16823;DHT22;8528;49.976;11.858;2023-06-22T15:40:39;31.60;51.70
16823;DHT22;8528;49.976;11.858;2023-06-22T15:43:10;31.50;51.80
16823;DHT22;8528;49.976;11.858;2023-06-22T15:45:37;31.40;52.90